createdAt,value
2022-09-11T00:01:45.524Z,16.70
2022-09-11T00:04:13.907Z,16.70
2022-09-11T00:06:43.713Z,16.60
2022-09-11T00:09:12.085Z,16.60
2022-09-11T00:11:43.792Z,16.60
2022-09-11T00:14:15.399Z,16.70
2022-09-11T00:16:47.242Z,16.60
2022-09-11T00:19:18.746Z,16.60
2022-09-11T00:21:47.495Z,16.40
2022-09-11T00:24:15.532Z,16.40
2022-09-11T00:26:43.715Z,16.50
2022-09-11T00:29:12.158Z,16.20
2022-09-11T00:31:41.706Z,16.40
2022-09-11T00:34:09.855Z,16.40
2022-09-11T00:36:41.213Z,16.50
2022-09-11T00:39:11.406Z,16.50
2022-09-11T00:41:42.322Z,16.50
2022-09-11T00:45:01.275Z,16.50
2022-09-11T00:47:32.014Z,16.30
2022-09-11T00:50:10.946Z,16.30
2022-09-11T00:52:43.234Z,16.40
2022-09-11T00:55:15.611Z,16.30
2022-09-11T00:57:48.265Z,16.40
2022-09-11T01:00:16.799Z,16.50
2022-09-11T01:02:50.406Z,16.60
2022-09-11T01:05:19.845Z,16.60
2022-09-11T01:07:48.893Z,16.50
2022-09-11T01:10:16.954Z,16.50
2022-09-11T01:12:54.876Z,16.40
2022-09-11T01:15:31.387Z,16.40
2022-09-11T01:18:09.202Z,16.40
2022-09-11T01:20:51.603Z,16.40
2022-09-11T01:23:35.712Z,16.30
2022-09-11T01:26:32.390Z,16.40
2022-09-11T01:29:07.249Z,16.40
2022-09-11T01:31:45.806Z,16.60
2022-09-11T01:34:22.848Z,16.40
2022-09-11T01:36:58.085Z,16.30
2022-09-11T01:39:34.549Z,16.40
2022-09-11T01:42:07.687Z,16.40
2022-09-11T01:44:42.327Z,16.50
2022-09-11T01:47:12.925Z,16.50
2022-09-11T01:49:47.991Z,16.40
2022-09-11T01:52:22.051Z,16.40
2022-09-11T01:54:55.737Z,16.40
2022-09-11T01:57:28.090Z,16.50
2022-09-11T02:00:02.149Z,16.50
2022-09-11T02:02:37.199Z,16.40
2022-09-11T02:05:11.077Z,16.20
2022-09-11T02:07:44.399Z,16.20
2022-09-11T02:10:17.178Z,16.20
2022-09-11T02:12:52.834Z,16.10
2022-09-11T02:15:27.176Z,16.10
2022-09-11T02:18:03.178Z,16.20
2022-09-11T02:20:31.370Z,16.20
2022-09-11T02:22:59.837Z,16.10
2022-09-11T02:25:27.930Z,16.00
2022-09-11T02:27:55.893Z,16.00
2022-09-11T02:30:25.174Z,16.00
2022-09-11T02:32:56.140Z,16.10
2022-09-11T02:35:25.345Z,16.00
2022-09-11T02:38:06.877Z,15.90
2022-09-11T02:40:48.453Z,16.10
2022-09-11T02:43:39.579Z,16.00
2022-09-11T02:46:30.942Z,16.00
2022-09-11T02:49:09.244Z,16.00
2022-09-11T02:51:47.938Z,15.80
2022-09-11T02:54:30.152Z,15.80
2022-09-11T02:57:07.346Z,15.70
2022-09-11T02:59:40.045Z,15.70
2022-09-11T03:02:16.422Z,15.60
2022-09-11T03:04:45.463Z,15.50
2022-09-11T03:07:13.556Z,15.50
2022-09-11T03:09:41.999Z,15.60
2022-09-11T03:12:10.255Z,15.50
2022-09-11T03:14:38.323Z,15.50
2022-09-11T03:17:06.384Z,15.20
2022-09-11T03:19:35.720Z,15.10
2022-09-11T03:22:03.993Z,15.00
2022-09-11T03:24:31.988Z,15.20
2022-09-11T03:26:59.962Z,15.10
2022-09-11T03:29:28.084Z,15.00
2022-09-11T03:31:58.644Z,15.00
2022-09-11T03:34:26.789Z,15.00
2022-09-11T03:36:56.066Z,15.10
2022-09-11T03:39:24.195Z,15.20
2022-09-11T03:41:52.241Z,15.20
2022-09-11T03:44:20.171Z,15.10
2022-09-11T03:46:48.113Z,15.20
2022-09-11T03:49:16.147Z,15.20
2022-09-11T03:51:44.098Z,15.20
2022-09-11T03:54:15.367Z,15.20
2022-09-11T03:56:43.892Z,15.10
2022-09-11T03:59:12.593Z,15.30
2022-09-11T04:01:40.626Z,15.20
2022-09-11T04:04:08.589Z,15.30
2022-09-11T04:06:36.799Z,15.20
2022-09-11T04:09:05.065Z,15.20
2022-09-11T04:11:38.824Z,15.20
2022-09-11T04:14:07.022Z,15.20
2022-09-11T04:16:35.589Z,15.20
2022-09-11T04:19:03.811Z,15.20
2022-09-11T04:21:33.954Z,15.20
2022-09-11T04:24:02.254Z,15.30
2022-09-11T04:26:34.028Z,15.20
2022-09-11T04:29:02.150Z,15.20
2022-09-11T04:31:30.199Z,15.30
2022-09-11T04:33:58.401Z,15.30
2022-09-11T04:36:27.073Z,15.20
2022-09-11T04:38:57.835Z,15.10
2022-09-11T04:41:26.501Z,15.20
2022-09-11T04:44:02.415Z,15.00
2022-09-11T04:46:32.250Z,15.00
2022-09-11T04:49:00.331Z,15.00
2022-09-11T04:51:30.328Z,15.00
2022-09-11T04:54:00.062Z,14.90
2022-09-11T04:56:30.578Z,15.00
2022-09-11T04:59:01.946Z,15.00
2022-09-11T05:01:32.363Z,15.20
2022-09-11T05:04:01.641Z,15.10
2022-09-11T05:06:30.689Z,15.10
2022-09-11T05:09:03.559Z,15.20
2022-09-11T05:11:31.892Z,15.20
2022-09-11T05:14:01.446Z,15.10
2022-09-11T05:16:31.104Z,15.10
2022-09-11T05:19:00.077Z,15.10
2022-09-11T05:21:29.612Z,15.10
2022-09-11T05:23:59.850Z,15.10
2022-09-11T05:26:30.526Z,15.10
2022-09-11T05:29:02.671Z,15.00
2022-09-11T05:31:32.024Z,15.10
2022-09-11T05:34:01.127Z,15.00
2022-09-11T05:36:31.006Z,15.00
2022-09-11T05:39:01.128Z,15.00
2022-09-11T05:41:29.121Z,15.00
2022-09-11T05:43:58.513Z,15.00
2022-09-11T05:46:27.960Z,14.90
2022-09-11T05:48:55.981Z,14.80
2022-09-11T05:51:24.272Z,14.90
2022-09-11T05:53:54.896Z,15.00
2022-09-11T05:56:25.185Z,15.00
2022-09-11T05:58:53.522Z,15.00
2022-09-11T06:01:24.827Z,14.90
2022-09-11T06:03:54.984Z,15.00
2022-09-11T06:06:25.080Z,15.00
2022-09-11T06:08:53.383Z,15.10
2022-09-11T06:11:23.109Z,15.10
2022-09-11T06:13:51.752Z,15.20
2022-09-11T06:16:22.285Z,15.30
2022-09-11T06:18:53.182Z,15.40
2022-09-11T06:21:23.523Z,15.50
2022-09-11T06:23:53.574Z,15.80
2022-09-11T06:26:23.653Z,15.90
2022-09-11T06:28:53.036Z,16.20
2022-09-11T06:31:23.039Z,16.70
2022-09-11T06:33:52.774Z,17.20
2022-09-11T06:36:24.284Z,17.80
2022-09-11T06:38:55.468Z,18.30
2022-09-11T06:41:24.473Z,18.80
2022-09-11T06:43:53.560Z,19.20
2022-09-11T06:46:24.201Z,19.50
2022-09-11T06:48:53.760Z,19.80
2022-09-11T06:51:23.916Z,20.30
2022-09-11T06:53:57.633Z,20.70
2022-09-11T06:56:26.223Z,21.50
2022-09-11T06:58:54.396Z,22.10
2022-09-11T07:01:24.360Z,22.60
2022-09-11T07:03:55.558Z,22.80
2022-09-11T07:06:25.880Z,23.00
2022-09-11T07:09:00.775Z,23.30
2022-09-11T07:11:32.393Z,23.70
2022-09-11T07:14:00.648Z,23.50
2022-09-11T07:16:31.327Z,23.40
2022-09-11T07:19:01.271Z,23.60
2022-09-11T07:21:29.884Z,24.00
2022-09-11T07:24:00.398Z,24.40
2022-09-11T07:26:31.899Z,24.70
2022-09-11T07:29:04.071Z,24.70
2022-09-11T07:31:39.415Z,25.00
2022-09-11T07:34:08.828Z,25.10
2022-09-11T07:36:37.460Z,24.50
2022-09-11T07:39:05.873Z,24.10
2022-09-11T07:41:34.731Z,24.70
2022-09-11T07:44:03.700Z,25.00
2022-09-11T07:46:32.824Z,24.60
2022-09-11T07:49:01.956Z,24.10
2022-09-11T07:51:31.413Z,24.00
2022-09-11T07:54:00.042Z,24.50
2022-09-11T07:56:28.929Z,24.80
2022-09-11T07:58:57.590Z,25.30
2022-09-11T08:01:29.611Z,25.50
2022-09-11T08:04:00.958Z,26.10
2022-09-11T08:06:32.884Z,26.30
2022-09-11T08:09:03.414Z,25.60
2022-09-11T08:11:36.166Z,26.00
2022-09-11T08:14:04.852Z,26.70
2022-09-11T08:16:33.016Z,27.90
2022-09-11T08:19:01.815Z,27.60
2022-09-11T08:21:31.556Z,26.70
2022-09-11T08:23:59.572Z,26.40
2022-09-11T08:26:30.254Z,26.00
2022-09-11T08:29:00.698Z,26.20
2022-09-11T08:31:29.315Z,26.40
2022-09-11T08:33:57.871Z,26.30
2022-09-11T08:36:26.186Z,26.70
2022-09-11T08:38:55.872Z,27.10
2022-09-11T08:41:41.908Z,27.60
2022-09-11T08:44:23.018Z,27.90
2022-09-11T08:46:56.919Z,27.30
2022-09-11T08:49:28.814Z,26.40
2022-09-11T08:52:00.039Z,25.70
2022-09-11T08:54:32.256Z,26.50
2022-09-11T08:57:11.694Z,26.30
2022-09-11T08:59:59.410Z,25.80
2022-09-11T09:02:51.579Z,25.10
2022-09-11T09:05:33.273Z,25.00
2022-09-11T09:08:19.201Z,25.00
2022-09-11T09:10:54.238Z,25.90
2022-09-11T09:13:45.374Z,26.60
2022-09-11T09:16:29.793Z,26.50
2022-09-11T09:19:05.417Z,26.20
2022-09-11T09:21:38.702Z,25.80
2022-09-11T09:24:19.280Z,26.10
2022-09-11T09:26:54.082Z,26.10
2022-09-11T09:29:24.708Z,26.10
2022-09-11T09:31:59.955Z,25.40
2022-09-11T09:34:31.905Z,25.20
2022-09-11T09:37:07.538Z,24.70
2022-09-11T09:39:37.226Z,24.70
2022-09-11T09:42:55.468Z,24.30
2022-09-11T09:45:40.213Z,23.80
2022-09-11T09:48:11.832Z,23.00
2022-09-11T09:50:41.880Z,22.60
2022-09-11T09:53:21.142Z,22.20
2022-09-11T09:55:56.199Z,22.20
2022-09-11T09:58:28.375Z,22.10
2022-09-11T10:00:58.067Z,21.80
2022-09-11T10:03:27.152Z,21.70
2022-09-11T10:05:57.090Z,21.80
2022-09-11T10:08:36.205Z,22.10
2022-09-11T10:11:07.325Z,22.20
2022-09-11T10:13:41.969Z,22.10
2022-09-11T10:16:22.339Z,22.10
2022-09-11T10:18:50.477Z,21.90
2022-09-11T10:21:29.853Z,21.80
2022-09-11T10:24:00.143Z,21.90
2022-09-11T10:26:36.364Z,21.80
2022-09-11T10:29:13.283Z,21.70
2022-09-11T10:31:49.749Z,21.60
2022-09-11T10:34:20.107Z,21.20
2022-09-11T10:36:55.524Z,21.60
2022-09-11T10:39:25.862Z,23.20
2022-09-11T10:41:59.230Z,24.20
2022-09-11T10:44:29.696Z,25.10
2022-09-11T10:47:06.288Z,25.90
2022-09-11T10:49:34.800Z,26.70
2022-09-11T10:52:15.319Z,27.50
2022-09-11T10:54:55.767Z,27.70
2022-09-11T10:57:29.939Z,27.80
2022-09-11T11:00:09.637Z,27.60
2022-09-11T11:02:41.106Z,28.10
2022-09-11T11:05:18.131Z,28.90
2022-09-11T11:08:09.508Z,29.20
2022-09-11T11:10:52.177Z,28.80
2022-09-11T11:13:45.219Z,27.70
2022-09-11T11:16:24.231Z,27.30
2022-09-11T11:19:12.587Z,26.50
2022-09-11T11:21:55.524Z,25.90
2022-09-11T11:24:47.460Z,25.30
2022-09-11T11:27:45.148Z,25.20
2022-09-11T11:30:19.342Z,24.80
2022-09-11T11:33:14.900Z,24.20
2022-09-11T11:35:57.846Z,24.00
2022-09-11T11:38:34.690Z,24.00
2022-09-11T11:41:10.499Z,23.80
2022-09-11T11:43:41.982Z,23.30
2022-09-11T11:46:18.044Z,23.30
2022-09-11T11:48:53.825Z,23.20
2022-09-11T11:51:27.125Z,22.90
2022-09-11T11:54:03.973Z,22.90
2022-09-11T11:56:40.764Z,22.90
2022-09-11T11:59:18.980Z,22.90
2022-09-11T12:01:54.446Z,22.90
2022-09-11T12:04:36.721Z,22.80
2022-09-11T12:07:09.071Z,22.70
2022-09-11T12:09:38.572Z,22.60
2022-09-11T12:12:08.741Z,22.60
2022-09-11T12:14:37.240Z,22.80
2022-09-11T12:17:20.910Z,22.60
2022-09-11T12:20:32.539Z,22.80
2022-09-11T12:23:04.448Z,23.30
2022-09-11T12:26:19.834Z,23.50
2022-09-11T12:28:48.726Z,23.50
2022-09-11T12:31:18.240Z,23.70
2022-09-11T12:33:57.325Z,23.70
2022-09-11T12:36:49.961Z,24.20
2022-09-11T12:39:27.578Z,24.20
2022-09-11T12:42:47.644Z,24.30
2022-09-11T12:45:37.056Z,24.30
2022-09-11T12:48:11.052Z,24.40
2022-09-11T12:50:45.835Z,24.40
2022-09-11T12:53:23.487Z,24.60
2022-09-11T12:55:59.107Z,24.60
2022-09-11T12:58:36.838Z,24.30
2022-09-11T13:01:18.626Z,23.90
2022-09-11T13:03:59.880Z,23.80
2022-09-11T13:06:39.816Z,23.70
2022-09-11T13:09:21.306Z,23.60
2022-09-11T13:11:52.354Z,23.40
2022-09-11T13:14:49.660Z,23.30
2022-09-11T13:17:30.167Z,23.00
2022-09-11T13:20:24.133Z,23.00
2022-09-11T13:22:57.658Z,23.00
2022-09-11T13:25:28.509Z,23.10
2022-09-11T13:28:01.125Z,23.10
2022-09-11T13:30:29.304Z,23.20
2022-09-11T13:33:07.489Z,23.20
2022-09-11T13:35:40.168Z,23.20
2022-09-11T13:38:11.829Z,23.30
2022-09-11T13:40:47.465Z,23.40
2022-09-11T13:43:20.661Z,23.30
2022-09-11T13:45:49.062Z,23.10
2022-09-11T13:48:25.820Z,23.00
2022-09-11T13:50:58.228Z,22.90
2022-09-11T13:53:27.271Z,23.00
2022-09-11T13:55:56.575Z,23.00
2022-09-11T13:58:26.621Z,23.00
2022-09-11T14:00:55.410Z,23.10
2022-09-11T14:03:27.897Z,23.10
2022-09-11T14:05:58.059Z,23.10
2022-09-11T14:08:34.185Z,23.10
2022-09-11T14:11:11.104Z,23.10
2022-09-11T14:13:48.048Z,23.00
2022-09-11T14:16:26.093Z,23.00
2022-09-11T14:18:59.468Z,23.10
2022-09-11T14:21:33.879Z,23.30
2022-09-11T14:24:02.685Z,23.40
2022-09-11T14:26:43.147Z,23.50
2022-09-11T14:29:25.688Z,23.50
2022-09-11T14:31:55.405Z,23.40
2022-09-11T14:34:28.347Z,23.40
2022-09-11T14:36:59.941Z,23.40
2022-09-11T14:39:34.844Z,23.40
2022-09-11T14:42:05.658Z,23.40
2022-09-11T14:44:35.495Z,23.30
2022-09-11T14:47:03.550Z,23.40
2022-09-11T14:49:31.647Z,23.40
2022-09-11T14:52:07.617Z,23.40
2022-09-11T14:54:35.709Z,23.50
2022-09-11T14:57:16.165Z,23.40
2022-09-11T14:59:46.829Z,23.40
2022-09-11T15:02:17.278Z,23.50
2022-09-11T15:04:46.747Z,23.50
2022-09-11T15:07:16.415Z,23.40
2022-09-11T15:09:44.693Z,23.40
2022-09-11T15:12:15.322Z,23.40
2022-09-11T15:14:59.948Z,23.40
2022-09-11T15:17:31.335Z,23.50
2022-09-11T15:20:00.613Z,23.40
2022-09-11T15:22:29.198Z,23.20
2022-09-11T15:24:57.194Z,23.00
2022-09-11T15:27:26.561Z,22.90
2022-09-11T15:29:55.167Z,22.90
2022-09-11T15:32:23.368Z,22.80
2022-09-11T15:34:51.629Z,22.70
2022-09-11T15:37:19.619Z,22.80
2022-09-11T15:39:47.661Z,22.50
2022-09-11T15:42:15.681Z,22.30
2022-09-11T15:44:45.976Z,22.10
2022-09-11T15:47:13.951Z,22.10
2022-09-11T15:49:44.266Z,22.00
2022-09-11T15:52:12.321Z,22.10
2022-09-11T15:54:40.476Z,22.20
2022-09-11T15:57:09.019Z,22.20
2022-09-11T15:59:37.047Z,22.30
2022-09-11T16:02:10.119Z,22.40
2022-09-11T16:04:38.613Z,22.30
2022-09-11T16:07:07.053Z,22.00
2022-09-11T16:09:35.153Z,21.70
2022-09-11T16:12:03.482Z,21.60
2022-09-11T16:14:34.029Z,21.70
2022-09-11T16:17:05.410Z,21.60
2022-09-11T16:19:36.122Z,21.30
2022-09-11T16:22:06.252Z,21.20
2022-09-11T16:24:38.049Z,21.00
2022-09-11T16:27:08.690Z,21.00
2022-09-11T16:30:15.995Z,20.80
2022-09-11T16:32:31.833Z,20.70
2022-09-11T16:35:01.116Z,20.50
2022-09-11T16:37:32.711Z,20.30
2022-09-11T16:40:02.274Z,20.10
2022-09-11T16:42:30.794Z,20.00
2022-09-11T16:44:58.842Z,19.80
2022-09-11T16:47:26.777Z,20.00
2022-09-11T16:50:10.029Z,20.00
2022-09-11T16:52:39.543Z,19.90
2022-09-11T16:55:10.229Z,19.80
2022-09-11T16:57:38.706Z,19.70
2022-09-11T17:00:09.280Z,19.50
2022-09-11T17:02:38.755Z,19.40
2022-09-11T17:05:08.223Z,19.30
2022-09-11T17:07:36.343Z,19.30
2022-09-11T17:10:06.512Z,19.20
2022-09-11T17:12:34.518Z,19.20
2022-09-11T17:15:02.605Z,19.10
2022-09-11T17:17:31.206Z,19.10
2022-09-11T17:19:59.264Z,19.10
2022-09-11T17:22:27.312Z,19.00
2022-09-11T17:24:57.477Z,19.00
2022-09-11T17:27:27.328Z,18.80
2022-09-11T17:29:55.322Z,18.70
2022-09-11T17:32:28.165Z,18.50
2022-09-11T17:34:57.005Z,18.50
2022-09-11T17:37:26.000Z,18.30
2022-09-11T17:39:54.224Z,18.30
2022-09-11T17:42:22.671Z,18.10
2022-09-11T17:44:51.984Z,18.00
2022-09-11T17:47:19.967Z,18.00
2022-09-11T17:49:48.358Z,18.00
2022-09-11T17:52:16.378Z,18.00
2022-09-11T17:54:44.317Z,18.10
2022-09-11T17:57:12.764Z,18.10
2022-09-11T17:59:40.696Z,18.20
2022-09-11T18:02:14.202Z,18.20
2022-09-11T18:04:43.806Z,18.20
2022-09-11T18:07:14.495Z,18.30
2022-09-11T18:09:43.485Z,18.20
2022-09-11T18:12:11.683Z,18.10
2022-09-11T18:14:42.910Z,18.10
2022-09-11T18:17:12.478Z,18.10
2022-09-11T18:19:40.617Z,18.20
2022-09-11T18:22:09.834Z,18.10
2022-09-11T18:24:39.755Z,17.90
2022-09-11T18:27:09.768Z,17.80
2022-09-11T18:29:39.924Z,17.70
2022-09-11T18:32:10.154Z,17.70
2022-09-11T18:34:39.948Z,17.80
2022-09-11T18:37:08.575Z,17.80
2022-09-11T18:39:38.273Z,17.70
2022-09-11T18:42:07.399Z,17.60
2022-09-11T18:44:35.788Z,17.50
2022-09-11T18:47:04.132Z,17.40
2022-09-11T18:49:34.750Z,17.50
2022-09-11T18:52:04.452Z,17.60
2022-09-11T18:54:33.550Z,17.60
2022-09-11T18:57:03.369Z,17.60
2022-09-11T18:59:33.402Z,17.50
2022-09-11T19:02:10.712Z,17.50
2022-09-11T19:04:39.017Z,17.50
2022-09-11T19:07:09.988Z,17.40
2022-09-11T19:09:38.356Z,17.20
2022-09-11T19:12:08.649Z,17.30
2022-09-11T19:14:37.725Z,17.20
2022-09-11T19:17:05.765Z,17.20
2022-09-11T19:19:33.749Z,17.40
2022-09-11T19:22:01.719Z,17.30
2022-09-11T19:24:31.608Z,17.30
2022-09-11T19:27:00.161Z,17.40
2022-09-11T19:29:28.422Z,17.30
2022-09-11T19:31:56.471Z,17.30
2022-09-11T19:34:24.795Z,17.20
2022-09-11T19:36:53.353Z,17.20
2022-09-11T19:39:21.727Z,17.40
2022-09-11T19:41:52.333Z,17.20
2022-09-11T19:44:20.970Z,17.20
2022-09-11T19:46:49.915Z,17.30
2022-09-11T19:49:18.249Z,17.00
2022-09-11T19:51:49.008Z,16.90
2022-09-11T19:54:19.473Z,16.90
2022-09-11T19:56:51.205Z,16.80
2022-09-11T19:59:20.789Z,16.70
2022-09-11T20:01:49.865Z,16.80
2022-09-11T20:04:19.032Z,16.70
2022-09-11T20:09:31.813Z,16.70
2022-09-11T20:12:01.428Z,16.70
2022-09-11T20:14:31.546Z,16.70
2022-09-11T20:17:00.977Z,16.80
2022-09-11T20:19:29.587Z,16.80
2022-09-11T20:21:57.683Z,16.70
2022-09-11T20:24:25.980Z,16.70
2022-09-11T20:26:55.343Z,16.70
2022-09-11T20:29:23.348Z,16.50
2022-09-11T20:31:54.026Z,16.50
2022-09-11T20:34:25.673Z,16.40
2022-09-11T20:36:53.730Z,16.50
2022-09-11T20:39:23.176Z,16.50
2022-09-11T20:41:51.115Z,16.60
2022-09-11T20:44:19.355Z,16.40
2022-09-11T20:46:48.327Z,16.40
2022-09-11T20:49:17.929Z,16.50
2022-09-11T20:51:46.854Z,16.70
2022-09-11T20:54:15.156Z,16.70
2022-09-11T20:56:44.345Z,16.60
2022-09-11T20:59:12.341Z,16.70
2022-09-11T21:01:40.424Z,16.70
2022-09-11T21:04:09.740Z,16.70
2022-09-11T21:06:40.859Z,16.60
2022-09-11T21:09:11.739Z,16.80
2022-09-11T21:11:41.481Z,16.70
2022-09-11T21:14:10.586Z,16.70
2022-09-11T21:16:39.093Z,16.50
2022-09-11T21:19:09.174Z,16.40
2022-09-11T21:21:40.051Z,16.20
2022-09-11T21:24:15.377Z,16.00
2022-09-11T21:26:43.567Z,16.00
2022-09-11T21:29:14.531Z,16.00
2022-09-11T21:31:42.585Z,16.00
2022-09-11T21:34:11.056Z,16.00
2022-09-11T21:36:40.587Z,16.00
2022-09-11T21:39:08.593Z,16.10
2022-09-11T21:41:36.569Z,16.10
2022-09-11T21:44:05.131Z,16.20
2022-09-11T21:46:33.331Z,16.20
2022-09-11T21:49:01.799Z,16.10
2022-09-11T21:51:30.415Z,16.10
2022-09-11T21:54:01.617Z,16.10
2022-09-11T21:56:31.912Z,16.10
2022-09-11T21:59:00.981Z,16.00
2022-09-11T22:01:29.910Z,16.10
2022-09-11T22:03:59.994Z,16.10
2022-09-11T22:06:29.031Z,15.90
2022-09-11T22:08:59.080Z,15.80
2022-09-11T22:11:27.463Z,15.70
2022-09-11T22:13:55.755Z,15.80
2022-09-11T22:16:24.014Z,15.70
2022-09-11T22:18:54.315Z,15.70
2022-09-11T22:21:22.516Z,15.80
2022-09-11T22:23:50.457Z,15.80
2022-09-11T22:26:23.551Z,15.80
2022-09-11T22:28:52.856Z,15.60
2022-09-11T22:31:23.626Z,15.50
2022-09-11T22:33:52.056Z,15.50
2022-09-11T22:36:23.544Z,15.40
2022-09-11T22:38:52.324Z,15.50
2022-09-11T22:41:22.498Z,15.50
2022-09-11T22:43:50.686Z,15.50
2022-09-11T22:46:20.669Z,15.50
2022-09-11T22:48:48.861Z,15.40
2022-09-11T22:51:17.579Z,15.50
2022-09-11T22:53:45.723Z,15.50
2022-09-11T22:56:14.131Z,15.40
2022-09-11T22:58:43.773Z,15.30
2022-09-11T23:01:21.095Z,15.20
2022-09-11T23:03:50.107Z,15.20
2022-09-11T23:06:35.984Z,15.20
2022-09-11T23:09:05.296Z,15.00
2022-09-11T23:11:33.269Z,15.20
2022-09-11T23:14:02.645Z,15.20
2022-09-11T23:16:31.694Z,15.20
2022-09-11T23:19:02.134Z,15.20
2022-09-11T23:21:32.718Z,15.10
2022-09-11T23:24:01.350Z,15.20
2022-09-11T23:26:30.993Z,15.20
2022-09-11T23:28:59.418Z,15.20
2022-09-11T23:31:32.113Z,15.20
2022-09-11T23:34:02.713Z,15.20
2022-09-11T23:36:32.338Z,15.30
2022-09-11T23:39:00.932Z,15.20
2022-09-11T23:41:29.321Z,15.10
2022-09-11T23:43:57.729Z,15.00
2022-09-11T23:46:25.837Z,15.10
2022-09-11T23:48:55.802Z,15.20
2022-09-11T23:51:23.745Z,15.20
2022-09-11T23:53:52.387Z,15.20
2022-09-11T23:56:22.412Z,15.20
2022-09-11T23:58:51.368Z,15.10
